Lähistön asemien METAR-raportit

 

EFJY - Jyvaskyla (mil/C, Finland
Etäisyys Sääasemalta: E 40km
Päivitetty: 27/02/2021 14:20
Selkeätä
Selkeätä
 Tuulen suunta LLu
Tuuli: LLu 9 km/h
Lämpötila: 3°C
Tuulen purevuus: 0°C
Kastepiste: -5°C
Ilmankosteus: 56%
Ilmanpaine: 1019 hPa
Yhteenveto: Selkeätä
Näkyvyys: Enemmän Kuin 10 km
2021/02/27 14:20 EFJY 271420Z AUTO 29005KT CAVOK 03/M05 Q1019
EFKU - Kuopio (mil/Civ), Finland
Etäisyys Sääasemalta: IKo 106km
Päivitetty: 27/02/2021 14:20
Selkeätä
Selkeätä
 Tuulen suunta Lu
Tuuli: Lu 7 km/h
Lämpötila: 0°C
Tuulen purevuus: -3°C
Kastepiste: -4°C
Ilmankosteus: 75%
Ilmanpaine: 1018 hPa
Yhteenveto: Selkeätä
Näkyvyys: Enemmän Kuin 10 km
2021/02/27 14:20 EFKU 271420Z AUTO 31004KT CAVOK 00/M04 Q1018
EFHA - Halli (fin-Afb), Finland
Etäisyys Sääasemalta: ELo 113km
Päivitetty: 27/02/2021 14:20
Selkeätä
Selkeätä
 Tuulen suunta LLu
Tuuli: LLu 15 km/h
Lämpötila: 3°C
Tuulen purevuus: -1°C
Kastepiste: -5°C
Ilmankosteus: 56%
Ilmanpaine: 1020 hPa
Yhteenveto: Selkeätä
Näkyvyys: Enemmän Kuin 10 km
2021/02/27 14:20 EFHA 271420Z AUTO 30008KT CAVOK 03/M05 Q1020
 
EFMI - Mikkeli, Finland
Etäisyys Sääasemalta: EKa 140km
Päivitetty: 27/02/2021 14:20
Selkeätä
Selkeätä
 Tuulen suunta L
Tuuli: L 9 km/h
Lämpötila: 2°C
Tuulen purevuus: -1°C
Kastepiste: -4°C
Ilmankosteus: 65%
Ilmanpaine: 1019 hPa
Yhteenveto: Selkeätä
Näkyvyys: Enemmän Kuin 10 km
2021/02/27 14:20 EFMI 271420Z AUTO 28005KT 260V320 CAVOK 02/M04 Q1019
EFSI - Seinajoki-Ilmajo, Finland
Etäisyys Sääasemalta: L 150km
Päivitetty: 27/02/2021 14:20
Selkeätä
Selkeätä
 Tuulen suunta LLo
Tuuli: LLo 6 km/h
Lämpötila: 2°C
Kastepiste: -4°C
Ilmankosteus: 65%
Ilmanpaine: 1020 hPa
Yhteenveto: Selkeätä
Näkyvyys: Enemmän Kuin 10 km
2021/02/27 14:20 EFSI 271420Z AUTO 24003KT CAVOK 02/M04 Q1020
EFKK - Kruunupyy, Finland
Etäisyys Sääasemalta: Lu 170km
Päivitetty: 27/02/2021 14:20
Selkeätä
Selkeätä
 Tuulen suunta ELo
Tuuli: ELo 13 km/h
Lämpötila: 1°C
Tuulen purevuus: -3°C
Kastepiste: -3°C
Ilmankosteus: 75%
Ilmanpaine: 1018 hPa
Yhteenveto: Selkeätä
Näkyvyys: Enemmän Kuin 10 km
2021/02/27 14:20 EFKK 271420Z AUTO 20007KT CAVOK 01/M03 Q1018
 
EFSA - Savonlinna (aut), Finland
Etäisyys Sääasemalta: IKa 186km
Päivitetty: 27/02/2021 14:20
Heikkoa Lumisadetta, Kuurottaisia sateita, Pilvistä
Heikkoa Lumisadetta, Kuurottaisia sateita, Pilvistä
 Tuulen suunta Lu
Tuuli: Lu 17 km/h
Lämpötila: 0°C
Tuulen purevuus: -4°C
Kastepiste: -3°C
Ilmankosteus: 80%
Ilmanpaine: 1018 hPa
Yhteenveto: Heikkoa Lumisadetta, Kuurottaisia sateita
Pilvisyys: Pilvistä
Näkyvyys: 10 km
Pilvisyystiedot: Pilvistä 427 m
2021/02/27 14:20 EFSA 271420Z AUTO 31009KT 9999 -SHSN OVC014 00/M03 Q1018
EFTP - Tampere/Pirkkala, Finland
Etäisyys Sääasemalta: Lo 187km
Päivitetty: 27/02/2021 14:50
Selkeätä
Selkeätä
 Tuulen suunta L
Tuuli: L 20 km/h
Lämpötila: 3°C
Tuulen purevuus: -2°C
Kastepiste: -4°C
Ilmankosteus: 60%
Ilmanpaine: 1021 hPa
Yhteenveto: Selkeätä
Näkyvyys: Enemmän Kuin 10 km
2021/02/27 14:50 EFTP 271450Z AUTO 28011KT 250V310 CAVOK 03/M04 Q1021
EFKI - Kajaani, Finland
Etäisyys Sääasemalta: PKo 192km
Päivitetty: 27/02/2021 14:20
Selkeätä
Selkeätä
 Tuulen suunta L
Tuuli: L 9 km/h
Lämpötila: -1°C
Tuulen purevuus: -4°C
Kastepiste: -5°C
Ilmankosteus: 75%
Ilmanpaine: 1016 hPa
Yhteenveto: Selkeätä
Näkyvyys: Enemmän Kuin 10 km
2021/02/27 14:20 EFKI 271420Z AUTO 26005KT CAVOK M01/M05 Q1016
 
EFJO - Joensuu, Finland
Etäisyys Sääasemalta: I 196km
Päivitetty: 27/02/2021 14:20
Pilvistä
Pilvistä
 Tuulen suunta LLu
Tuuli: LLu 17 km/h
Lämpötila: 0°C
Tuulen purevuus: -4°C
Kastepiste: -2°C
Ilmankosteus: 87%
Ilmanpaine: 1017 hPa
Pilvisyys: Pilvistä
Näkyvyys: 10 km
Pilvisyystiedot: Joitain Pilviä 366 m
Pilvistä 610 m
2021/02/27 14:20 EFJO 271420Z AUTO 30009KT 9999 FEW012 OVC020 00/M02 Q1017